createdAt,value
2019-02-28T00:01:43.200Z,100800.67
2019-02-28T00:04:13.043Z,100798.14
2019-02-28T00:06:44.316Z,100793.08
2019-02-28T00:09:17.322Z,100794.51
2019-02-28T00:11:49.413Z,100788.62
2019-02-28T00:14:19.827Z,100784.39
2019-02-28T00:16:51.288Z,100780.13
2019-02-28T00:19:24.012Z,100768.86
2019-02-28T00:21:57.155Z,100763.64
2019-02-28T00:24:30.088Z,100765.20
2019-02-28T00:27:03.401Z,100755.16
2019-02-28T00:29:35.004Z,100753.23
2019-02-28T00:32:05.315Z,100748.39
2019-02-28T00:34:39.342Z,100745.21
2019-02-28T00:37:09.329Z,100745.56
2019-02-28T00:39:42.144Z,100743.19
2019-02-28T00:42:17.334Z,100747.58
2019-02-28T00:44:45.050Z,100740.38
2019-02-28T00:47:16.441Z,100727.69
2019-02-28T00:49:49.597Z,100726.39
2019-02-28T00:52:20.743Z,100731.06
2019-02-28T00:54:52.914Z,100726.77
2019-02-28T00:57:23.886Z,100730.94
2019-02-28T00:59:56.398Z,100736.62
2019-02-28T01:02:27.154Z,100734.27
2019-02-28T01:05:01.290Z,100743.85
2019-02-28T01:07:31.933Z,100738.56
2019-02-28T01:10:04.534Z,100730.62
2019-02-28T01:12:34.729Z,100735.83
2019-02-28T01:15:10.027Z,100733.06
2019-02-28T01:17:39.994Z,100728.99
2019-02-28T01:20:14.765Z,100731.77
2019-02-28T01:22:43.638Z,100725.39
2019-02-28T01:25:14.102Z,100725.39
2019-02-28T01:27:46.125Z,100724.91
2019-02-28T01:30:17.838Z,100717.61
2019-02-28T01:32:51.121Z,100714.30
2019-02-28T01:35:22.620Z,100704.21
2019-02-28T01:37:53.060Z,100697.61
2019-02-28T01:40:25.275Z,100702.69
2019-02-28T01:42:57.365Z,100697.41
2019-02-28T01:45:28.090Z,100696.32
2019-02-28T01:48:00.530Z,100692.15
2019-02-28T01:50:31.159Z,100689.62
2019-02-28T01:53:01.374Z,100687.91
2019-02-28T01:55:32.111Z,100686.69
2019-02-28T01:58:02.507Z,100679.90
2019-02-28T02:00:34.997Z,100675.35
2019-02-28T02:03:06.307Z,100684.52
2019-02-28T02:05:37.835Z,100683.23
2019-02-28T02:08:10.291Z,100676.95
2019-02-28T02:10:42.351Z,100675.05
2019-02-28T02:13:12.832Z,100673.67
2019-02-28T02:15:44.851Z,100670.50
2019-02-28T02:18:15.016Z,100664.58
2019-02-28T02:20:45.707Z,100657.73
2019-02-28T02:23:18.063Z,100658.55
2019-02-28T02:25:50.279Z,100660.25
2019-02-28T02:28:20.812Z,100656.38
2019-02-28T02:30:52.228Z,100648.46
2019-02-28T02:33:24.263Z,100647.33
2019-02-28T02:35:54.465Z,100646.20
2019-02-28T02:38:26.824Z,100637.95
2019-02-28T02:41:00.583Z,100635.53
2019-02-28T02:43:31.485Z,100637.50
2019-02-28T02:46:02.745Z,100639.20
2019-02-28T02:48:33.347Z,100635.17
2019-02-28T02:51:10.727Z,100627.66
2019-02-28T02:53:42.008Z,100628.59
2019-02-28T02:56:12.137Z,100628.85
2019-02-28T02:58:42.441Z,100621.13
2019-02-28T03:01:12.641Z,100615.67
2019-02-28T03:03:44.570Z,100615.36
2019-02-28T03:06:16.002Z,100620.13
2019-02-28T03:08:46.752Z,100616.84
2019-02-28T03:11:18.137Z,100617.67
2019-02-28T03:13:50.676Z,100618.73
2019-02-28T03:16:21.894Z,100617.86
2019-02-28T03:18:56.817Z,100613.78
2019-02-28T03:21:25.709Z,100617.01
2019-02-28T03:23:58.004Z,100609.80
2019-02-28T03:26:28.776Z,100597.09
2019-02-28T03:29:07.573Z,100598.80
2019-02-28T03:31:34.317Z,100588.23
2019-02-28T03:34:12.973Z,100584.89
2019-02-28T03:36:36.750Z,100576.81
2019-02-28T03:39:08.025Z,100570.33
2019-02-28T03:41:39.693Z,100566.52
2019-02-28T03:44:09.975Z,100572.72
2019-02-28T03:46:46.457Z,100562.98
2019-02-28T03:49:14.007Z,100566.17
2019-02-28T03:51:44.401Z,100564.58
2019-02-28T03:54:16.087Z,100559.52
2019-02-28T03:56:51.662Z,100568.14
2019-02-28T03:59:20.179Z,100559.20
2019-02-28T04:01:50.550Z,100563.22
2019-02-28T04:04:23.847Z,100563.59
2019-02-28T04:06:54.212Z,100561.47
2019-02-28T04:09:24.408Z,100559.66
2019-02-28T04:11:55.063Z,100555.19
2019-02-28T04:14:28.595Z,100548.19
2019-02-28T04:16:58.153Z,100552.67
2019-02-28T04:19:28.901Z,100553.28
2019-02-28T04:22:00.198Z,100557.30
2019-02-28T04:24:30.430Z,100551.65
2019-02-28T04:27:07.014Z,100550.66
2019-02-28T04:29:36.054Z,100554.73
2019-02-28T04:32:08.602Z,100548.30
2019-02-28T04:34:40.785Z,100545.41
2019-02-28T04:37:12.019Z,100545.98
2019-02-28T04:39:44.439Z,100538.27
2019-02-28T04:42:15.047Z,100541.34
2019-02-28T04:44:49.206Z,100537.08
2019-02-28T04:47:20.409Z,100543.73
2019-02-28T04:49:53.519Z,100537.53
2019-02-28T04:52:23.204Z,100538.47
2019-02-28T04:54:59.425Z,100534.81
2019-02-28T04:57:30.627Z,100536.87
2019-02-28T05:00:05.264Z,100534.34
2019-02-28T05:02:34.757Z,100531.53
2019-02-28T05:05:12.213Z,100539.86
2019-02-28T05:07:39.759Z,100534.45
2019-02-28T05:10:10.478Z,100530.55
2019-02-28T05:12:41.380Z,100520.88
2019-02-28T05:15:14.938Z,100518.45
2019-02-28T05:17:46.376Z,100505.33
2019-02-28T05:20:16.921Z,100510.16
2019-02-28T05:22:48.669Z,100510.23
2019-02-28T05:25:19.084Z,100519.53
2019-02-28T05:27:50.958Z,100516.50
2019-02-28T05:30:21.485Z,100524.94
2019-02-28T05:32:51.904Z,100526.07
2019-02-28T05:35:26.648Z,100524.27
2019-02-28T05:37:55.529Z,100528.64
2019-02-28T05:40:25.758Z,100526.38
2019-02-28T05:42:58.526Z,100531.16
2019-02-28T05:45:31.325Z,100530.59
2019-02-28T05:48:03.955Z,100529.56
2019-02-28T05:50:33.830Z,100529.80
2019-02-28T05:53:06.331Z,100523.94
2019-02-28T05:55:38.165Z,100523.03
2019-02-28T05:58:09.514Z,100520.52
2019-02-28T06:00:41.897Z,100514.42
2019-02-28T06:03:13.554Z,100512.31
2019-02-28T06:05:47.139Z,100512.45
2019-02-28T06:08:19.370Z,100512.09
2019-02-28T06:10:50.064Z,100512.50
2019-02-28T06:13:20.394Z,100522.45
2019-02-28T06:15:51.810Z,100519.47
2019-02-28T06:18:21.952Z,100522.50
2019-02-28T06:20:53.838Z,100524.05
2019-02-28T06:23:24.417Z,100528.37
2019-02-28T06:25:55.741Z,100532.09
2019-02-28T06:28:31.038Z,100528.64
2019-02-28T06:31:01.206Z,100535.77
2019-02-28T06:33:34.359Z,100541.36
2019-02-28T06:36:05.075Z,100535.77
2019-02-28T06:38:36.681Z,100544.42
2019-02-28T06:41:09.361Z,100543.03
2019-02-28T06:43:40.607Z,100533.54
2019-02-28T06:46:11.861Z,100534.63
2019-02-28T06:48:43.327Z,100537.96
2019-02-28T06:51:16.877Z,100536.32
2019-02-28T06:53:46.829Z,100539.82
2019-02-28T06:56:22.222Z,100539.65
2019-02-28T06:58:51.631Z,100523.58
2019-02-28T07:01:22.903Z,100519.86
2019-02-28T07:03:54.408Z,100527.98
2019-02-28T07:06:26.865Z,100530.27
2019-02-28T07:09:02.133Z,100517.52
2019-02-28T07:11:31.045Z,100518.28
2019-02-28T07:14:01.548Z,100517.12
2019-02-28T07:16:34.498Z,100521.08
2019-02-28T07:19:04.335Z,100517.42
2019-02-28T07:21:34.694Z,100519.50
2019-02-28T07:24:05.304Z,100520.36
2019-02-28T07:26:36.751Z,100525.34
2019-02-28T07:29:10.928Z,100529.91
2019-02-28T07:31:39.463Z,100530.77
2019-02-28T07:34:09.621Z,100529.73
2019-02-28T07:36:44.309Z,100521.53
2019-02-28T07:39:12.327Z,100523.49
2019-02-28T07:41:42.829Z,100529.13
2019-02-28T07:44:14.284Z,100531.23
2019-02-28T07:46:46.039Z,100527.45
2019-02-28T07:49:18.077Z,100522.89
2019-02-28T07:51:49.983Z,100514.25
2019-02-28T07:54:20.865Z,100508.45
2019-02-28T07:56:52.673Z,100500.25
2019-02-28T07:59:26.073Z,100495.20
2019-02-28T08:01:56.614Z,100502.33
2019-02-28T08:04:27.296Z,100500.30
2019-02-28T08:06:57.804Z,100506.22
2019-02-28T08:09:30.842Z,100511.02
2019-02-28T08:12:04.001Z,100505.63
2019-02-28T08:14:35.523Z,100510.46
2019-02-28T08:17:09.094Z,100509.27
2019-02-28T08:19:40.883Z,100502.00
2019-02-28T08:22:11.140Z,100504.03
2019-02-28T08:24:41.863Z,100501.81
2019-02-28T08:27:12.381Z,100505.70
2019-02-28T08:29:45.787Z,100510.14
2019-02-28T08:32:14.981Z,100508.46
2019-02-28T08:34:46.846Z,100506.81
2019-02-28T08:37:19.040Z,100505.20
2019-02-28T08:39:50.888Z,100505.02
2019-02-28T08:42:21.406Z,100502.08
2019-02-28T08:44:58.070Z,100501.70
2019-02-28T08:47:24.853Z,100502.48
2019-02-28T08:49:55.135Z,100503.23
2019-02-28T08:52:26.702Z,100505.02
2019-02-28T08:54:59.745Z,100506.21
2019-02-28T08:57:30.841Z,100508.83
2019-02-28T09:00:01.320Z,100513.66
2019-02-28T09:02:33.570Z,100512.90
2019-02-28T09:05:04.539Z,100512.08
2019-02-28T09:07:34.909Z,100512.41
2019-02-28T09:10:11.712Z,100510.77
2019-02-28T09:12:40.290Z,100518.67
2019-02-28T09:15:12.022Z,100515.30
2019-02-28T09:17:42.289Z,100509.05
2019-02-28T09:20:14.660Z,100512.79
2019-02-28T09:22:45.864Z,100507.00
2019-02-28T09:25:21.556Z,100504.72
2019-02-28T09:27:50.465Z,100500.44
2019-02-28T09:30:31.130Z,100509.98
2019-02-28T09:33:04.628Z,100508.46
2019-02-28T09:35:34.943Z,100501.45
2019-02-28T09:38:07.682Z,100496.59
2019-02-28T09:40:38.203Z,100486.66
2019-02-28T09:43:08.284Z,100482.02
2019-02-28T09:45:39.849Z,100483.13
2019-02-28T09:48:10.372Z,100490.50
2019-02-28T09:50:40.701Z,100490.02
2019-02-28T09:53:15.487Z,100488.80
2019-02-28T09:55:45.248Z,100481.61
2019-02-28T09:58:16.699Z,100491.12
2019-02-28T10:00:50.220Z,100486.30
2019-02-28T10:03:19.676Z,100493.20
2019-02-28T10:05:51.167Z,100487.66
2019-02-28T10:08:21.905Z,100486.08
2019-02-28T10:10:55.448Z,100488.45
2019-02-28T10:13:27.471Z,100490.43
2019-02-28T10:15:58.186Z,100495.14
2019-02-28T10:18:29.563Z,100494.48
2019-02-28T10:21:01.902Z,100509.39
2019-02-28T10:23:34.209Z,100507.60
2019-02-28T10:26:06.394Z,100500.17
2019-02-28T10:28:36.734Z,100507.79
2019-02-28T10:31:08.265Z,100514.44
2019-02-28T10:33:39.178Z,100513.96
2019-02-28T10:36:12.904Z,100514.23
2019-02-28T10:38:41.863Z,100514.84
2019-02-28T10:41:12.307Z,100519.10
2019-02-28T10:43:42.617Z,100515.39
2019-02-28T10:46:16.577Z,100525.92
2019-02-28T10:48:50.935Z,100528.37
2019-02-28T10:51:20.625Z,100529.17
2019-02-28T10:53:53.622Z,100525.48
2019-02-28T10:56:24.466Z,100532.85
2019-02-28T10:58:54.731Z,100527.20
2019-02-28T11:01:25.082Z,100524.44
2019-02-28T11:03:55.849Z,100529.11
2019-02-28T11:06:28.901Z,100526.63
2019-02-28T11:08:59.706Z,100530.48
2019-02-28T11:11:30.455Z,100529.95
2019-02-28T11:14:03.990Z,100528.91
2019-02-28T11:16:36.159Z,100524.66
2019-02-28T11:19:07.904Z,100526.78
2019-02-28T11:21:38.883Z,100530.96
2019-02-28T11:24:09.031Z,100534.02
2019-02-28T11:26:41.315Z,100532.37
2019-02-28T11:29:13.253Z,100529.05
2019-02-28T11:31:43.932Z,100523.36
2019-02-28T11:34:15.727Z,100518.42
2019-02-28T11:36:47.324Z,100517.23
2019-02-28T11:39:20.709Z,100521.23
2019-02-28T11:41:53.767Z,100521.37
2019-02-28T11:44:25.276Z,100514.20
2019-02-28T11:46:55.678Z,100528.34
2019-02-28T11:49:28.658Z,100528.91
2019-02-28T11:51:59.505Z,100525.55
2019-02-28T11:54:30.055Z,100526.45
2019-02-28T11:57:03.004Z,100523.23
2019-02-28T11:59:34.641Z,100524.44
2019-02-28T12:02:05.495Z,100523.20
2019-02-28T12:04:40.384Z,100524.94
2019-02-28T12:07:09.997Z,100522.86
2019-02-28T12:09:41.847Z,100521.66
2019-02-28T12:12:12.610Z,100512.31
2019-02-28T12:14:44.744Z,100505.23
2019-02-28T12:17:16.075Z,100502.78
2019-02-28T12:19:47.627Z,100500.00
2019-02-28T12:22:18.493Z,100496.59
2019-02-28T12:24:50.049Z,100488.45
2019-02-28T12:27:20.396Z,100488.41
2019-02-28T12:29:51.659Z,100485.69
2019-02-28T12:32:22.264Z,100479.88
2019-02-28T12:34:52.719Z,100474.43
2019-02-28T12:37:23.133Z,100467.91
2019-02-28T12:39:54.783Z,100471.69
2019-02-28T12:42:25.123Z,100468.38
2019-02-28T12:44:55.850Z,100475.62
2019-02-28T12:47:29.471Z,100473.43
2019-02-28T12:50:00.931Z,100474.93
2019-02-28T12:52:34.173Z,100474.50
2019-02-28T12:55:07.608Z,100477.81
2019-02-28T12:57:40.608Z,100477.22
2019-02-28T13:00:15.520Z,100472.59
2019-02-28T13:02:47.254Z,100473.63
2019-02-28T13:06:13.794Z,100473.12
2019-02-28T13:08:44.364Z,100466.78
2019-02-28T13:11:14.672Z,100462.50
2019-02-28T13:13:46.790Z,100465.81
2019-02-28T13:16:20.726Z,100465.71
2019-02-28T13:19:16.387Z,100463.69
2019-02-28T13:21:49.740Z,100472.66
2019-02-28T13:24:20.377Z,100480.23
2019-02-28T13:26:50.704Z,100473.86
2019-02-28T13:29:23.291Z,100477.94
2019-02-28T13:31:57.682Z,100483.45
2019-02-28T13:34:29.018Z,100476.25
2019-02-28T13:37:02.936Z,100469.77
2019-02-28T13:39:32.820Z,100471.52
2019-02-28T13:42:04.310Z,100463.02
2019-02-28T13:44:36.360Z,100463.66
2019-02-28T13:47:09.888Z,100469.05
2019-02-28T13:49:41.063Z,100467.72
2019-02-28T13:52:19.098Z,100461.33
2019-02-28T13:54:43.667Z,100471.23
2019-02-28T13:57:15.115Z,100471.44
2019-02-28T13:59:45.739Z,100474.23
2019-02-28T14:02:16.077Z,100472.10
2019-02-28T14:04:46.929Z,100473.50
2019-02-28T14:07:17.351Z,100466.89
2019-02-28T14:09:47.935Z,100468.19
2019-02-28T14:12:20.785Z,100472.84
2019-02-28T14:14:52.834Z,100469.77
2019-02-28T14:17:25.109Z,100471.00
2019-02-28T14:19:55.912Z,100471.37
2019-02-28T14:22:26.216Z,100467.83
2019-02-28T14:24:56.363Z,100474.52
2019-02-28T14:27:27.896Z,100477.68
2019-02-28T14:29:59.485Z,100475.08
2019-02-28T14:32:32.103Z,100485.88
2019-02-28T14:35:02.528Z,100478.07
2019-02-28T14:37:34.950Z,100476.12
2019-02-28T14:40:09.438Z,100466.92
2019-02-28T14:42:40.841Z,100459.84
2019-02-28T14:45:14.345Z,100464.67
2019-02-28T14:47:44.890Z,100459.47
2019-02-28T14:50:18.577Z,100461.61
2019-02-28T14:52:47.406Z,100456.22
2019-02-28T14:55:17.520Z,100454.64
2019-02-28T14:57:48.890Z,100457.59
2019-02-28T15:00:27.392Z,100456.77
2019-02-28T15:02:59.453Z,100463.17
2019-02-28T15:05:30.433Z,100462.06
2019-02-28T15:08:01.777Z,100467.45
2019-02-28T15:10:34.535Z,100468.09
2019-02-28T15:13:07.839Z,100460.93
2019-02-28T15:15:39.297Z,100460.30
2019-02-28T15:18:10.968Z,100460.83
2019-02-28T15:20:41.798Z,100464.48
2019-02-28T15:23:12.338Z,100466.12
2019-02-28T15:25:43.722Z,100464.20
2019-02-28T15:28:14.814Z,100463.34
2019-02-28T15:30:46.725Z,100469.66
2019-02-28T15:33:18.784Z,100462.33
2019-02-28T15:35:49.829Z,100462.42
2019-02-28T15:38:23.274Z,100453.60
2019-02-28T15:40:55.683Z,100455.62
2019-02-28T15:43:28.675Z,100453.84
2019-02-28T15:45:59.106Z,100457.16
2019-02-28T15:48:31.429Z,100454.14
2019-02-28T15:51:04.881Z,100460.48
2019-02-28T15:53:37.977Z,100453.34
2019-02-28T15:56:13.207Z,100449.34
2019-02-28T15:58:42.611Z,100450.86
2019-02-28T16:01:14.021Z,100456.46
2019-02-28T16:03:48.374Z,100451.96
2019-02-28T16:06:20.586Z,100448.73
2019-02-28T16:08:52.359Z,100445.77
2019-02-28T16:11:22.781Z,100458.34
2019-02-28T16:13:53.937Z,100457.45
2019-02-28T16:16:25.478Z,100458.31
2019-02-28T16:18:56.912Z,100455.66
2019-02-28T16:21:30.006Z,100456.59
2019-02-28T16:24:01.992Z,100453.49
2019-02-28T16:26:32.300Z,100457.86
2019-02-28T16:29:02.563Z,100456.65
2019-02-28T16:31:32.959Z,100460.77
2019-02-28T16:34:08.284Z,100446.20
2019-02-28T16:36:37.169Z,100449.05
2019-02-28T16:39:07.570Z,100444.77
2019-02-28T16:41:38.638Z,100442.31
2019-02-28T16:44:09.409Z,100449.53
2019-02-28T16:46:40.046Z,100446.94
2019-02-28T16:49:13.138Z,100446.47
2019-02-28T16:51:45.003Z,100446.55
2019-02-28T16:54:19.265Z,100448.59
2019-02-28T16:56:48.625Z,100455.28
2019-02-28T16:59:19.169Z,100461.46
2019-02-28T17:01:54.839Z,100460.89
2019-02-28T17:04:25.626Z,100462.54
2019-02-28T17:06:56.086Z,100459.25
2019-02-28T17:09:45.780Z,100463.85
2019-02-28T17:12:28.872Z,100467.73
2019-02-28T17:14:59.908Z,100467.95
2019-02-28T17:17:43.470Z,100472.53
2019-02-28T17:20:15.741Z,100468.80
2019-02-28T17:22:46.719Z,100463.61
2019-02-28T17:25:21.372Z,100463.77
2019-02-28T17:28:15.272Z,100465.56
2019-02-28T17:31:08.449Z,100460.33
2019-02-28T17:33:43.379Z,100458.56
2019-02-28T17:36:13.051Z,100460.53
2019-02-28T17:38:45.122Z,100463.95
2019-02-28T17:41:18.115Z,100469.94
2019-02-28T17:44:19.956Z,100472.72
2019-02-28T17:46:52.214Z,100474.64
2019-02-28T17:50:23.959Z,100473.09
2019-02-28T17:53:30.644Z,100473.60
2019-02-28T17:57:01.324Z,100478.13
2019-02-28T18:00:16.156Z,100483.27
2019-02-28T18:03:33.382Z,100480.95
2019-02-28T18:07:26.571Z,100480.84
2019-02-28T18:10:40.919Z,100488.03
2019-02-28T18:14:11.515Z,100484.11
2019-02-28T18:18:15.630Z,100490.44
2019-02-28T18:21:52.842Z,100488.06
2019-02-28T18:25:43.393Z,100488.25
2019-02-28T18:29:08.303Z,100481.02
2019-02-28T18:31:41.369Z,100479.48
2019-02-28T18:34:21.882Z,100488.28
2019-02-28T18:36:55.529Z,100485.94
2019-02-28T18:39:28.718Z,100487.34
2019-02-28T18:42:03.531Z,100481.02
2019-02-28T18:44:37.475Z,100479.33
2019-02-28T18:47:08.204Z,100478.51
2019-02-28T18:49:38.583Z,100481.02
2019-02-28T18:52:09.167Z,100475.39
2019-02-28T18:54:40.244Z,100482.25
2019-02-28T18:57:10.998Z,100480.48
2019-02-28T18:59:43.856Z,100477.94
2019-02-28T19:02:14.607Z,100480.52
2019-02-28T19:04:46.883Z,100474.56
2019-02-28T19:07:18.602Z,100478.97
2019-02-28T19:09:50.962Z,100477.14
2019-02-28T19:12:21.425Z,100472.25
2019-02-28T19:14:52.116Z,100471.95
2019-02-28T19:17:24.710Z,100470.69
2019-02-28T19:19:55.845Z,100477.44
2019-02-28T19:22:26.824Z,100472.69
2019-02-28T19:24:57.841Z,100468.41
2019-02-28T19:27:28.346Z,100469.48
2019-02-28T19:29:59.373Z,100474.37
2019-02-28T19:32:33.916Z,100478.18
2019-02-28T19:35:06.104Z,100472.62
2019-02-28T19:37:38.270Z,100474.09
2019-02-28T19:40:09.831Z,100461.30
2019-02-28T19:42:41.658Z,100467.30
2019-02-28T19:45:13.754Z,100462.84
2019-02-28T19:47:44.640Z,100467.70
2019-02-28T19:50:16.616Z,100472.05
2019-02-28T19:52:48.821Z,100470.86
2019-02-28T19:55:22.733Z,100469.06
2019-02-28T19:57:53.210Z,100474.16
2019-02-28T20:00:23.670Z,100469.59
2019-02-28T20:02:54.533Z,100466.22
2019-02-28T20:05:25.250Z,100460.98
2019-02-28T20:07:56.657Z,100459.69
2019-02-28T20:10:27.477Z,100455.17
2019-02-28T20:13:01.612Z,100458.97
2019-02-28T20:15:36.318Z,100459.36
2019-02-28T20:18:08.656Z,100462.02
2019-02-28T20:20:39.720Z,100463.75
2019-02-28T20:23:12.124Z,100469.64
2019-02-28T20:25:44.434Z,100474.08
2019-02-28T20:28:16.509Z,100472.77
2019-02-28T20:30:48.679Z,100467.17
2019-02-28T20:33:19.505Z,100466.31
2019-02-28T20:35:51.271Z,100470.34
2019-02-28T20:38:23.358Z,100465.23
2019-02-28T20:40:56.125Z,100471.50
2019-02-28T20:43:26.568Z,100467.69
2019-02-28T20:45:57.677Z,100464.38
2019-02-28T20:48:28.237Z,100460.84
2019-02-28T20:50:58.565Z,100463.80
2019-02-28T20:53:30.226Z,100460.61
2019-02-28T20:56:01.047Z,100462.04
2019-02-28T20:58:32.427Z,100469.92
2019-02-28T21:01:03.204Z,100465.41
2019-02-28T21:03:35.515Z,100471.73
2019-02-28T21:06:07.253Z,100472.63
2019-02-28T21:08:39.542Z,100474.45
2019-02-28T21:11:11.064Z,100474.65
2019-02-28T21:13:41.416Z,100472.66
2019-02-28T21:16:13.975Z,100463.46
2019-02-28T21:18:47.835Z,100469.92
2019-02-28T21:21:18.568Z,100471.27
2019-02-28T21:23:49.254Z,100462.17
2019-02-28T21:26:21.757Z,100462.93
2019-02-28T21:28:52.354Z,100461.27
2019-02-28T21:31:22.553Z,100454.19
2019-02-28T21:33:53.030Z,100466.50
2019-02-28T21:36:23.111Z,100466.50
2019-02-28T21:38:53.163Z,100456.74
2019-02-28T21:41:23.284Z,100462.06
2019-02-28T21:43:53.799Z,100453.73
2019-02-28T21:46:25.033Z,100458.83
2019-02-28T21:48:55.566Z,100458.83
2019-02-28T21:51:25.981Z,100450.68
2019-02-28T21:53:56.872Z,100449.78
2019-02-28T21:56:27.234Z,100456.31
2019-02-28T21:58:57.801Z,100445.98
2019-02-28T22:01:27.870Z,100440.48
2019-02-28T22:03:57.983Z,100433.70
2019-02-28T22:06:28.046Z,100433.13
2019-02-28T22:08:58.081Z,100435.19
2019-02-28T22:11:30.461Z,100434.98
2019-02-28T22:14:00.700Z,100433.13
2019-02-28T22:16:32.200Z,100438.66
2019-02-28T22:19:02.653Z,100435.81
2019-02-28T22:21:33.817Z,100432.97
2019-02-28T22:24:07.121Z,100433.10
2019-02-28T22:26:38.376Z,100433.11
2019-02-28T22:29:10.596Z,100424.00
2019-02-28T22:32:12.388Z,100422.25
2019-02-28T22:35:03.387Z,100419.93
2019-02-28T22:37:35.037Z,100415.53
2019-02-28T22:40:05.934Z,100409.61
2019-02-28T22:42:36.447Z,100404.27
2019-02-28T22:45:07.594Z,100408.94
2019-02-28T22:47:38.919Z,100402.98
2019-02-28T22:50:10.576Z,100401.95
2019-02-28T22:52:42.755Z,100403.37
2019-02-28T22:55:14.937Z,100403.81
2019-02-28T22:57:48.111Z,100404.34
2019-02-28T23:01:01.213Z,100402.16
2019-02-28T23:03:33.896Z,100400.70
2019-02-28T23:06:05.666Z,100398.78
2019-02-28T23:08:40.840Z,100396.56
2019-02-28T23:11:11.375Z,100393.88
2019-02-28T23:13:42.698Z,100394.40
2019-02-28T23:16:14.034Z,100385.86
2019-02-28T23:18:44.447Z,100386.32
2019-02-28T23:21:14.812Z,100387.80
2019-02-28T23:23:48.415Z,100383.67
2019-02-28T23:26:25.284Z,100376.17
2019-02-28T23:29:17.873Z,100367.52
2019-02-28T23:32:32.559Z,100369.02
2019-02-28T23:35:03.813Z,100365.33
2019-02-28T23:37:34.165Z,100359.13
2019-02-28T23:40:05.769Z,100360.81
2019-02-28T23:42:36.475Z,100357.88
2019-02-28T23:45:07.222Z,100347.05
2019-02-28T23:47:37.746Z,100351.74
2019-02-28T23:50:09.481Z,100349.55
2019-02-28T23:52:41.507Z,100344.45
2019-02-28T23:55:12.055Z,100348.05
2019-02-28T23:57:45.148Z,100339.93
